createdAt,value
2024-02-02T00:01:49.633Z,98713.00
2024-02-02T00:04:19.657Z,98679.00
2024-02-02T00:06:51.272Z,98715.00
2024-02-02T00:09:21.115Z,98714.00
2024-02-02T00:11:50.889Z,98736.00
2024-02-02T00:14:20.607Z,98715.00
2024-02-02T00:16:49.836Z,98738.00
2024-02-02T00:19:19.783Z,98734.00
2024-02-02T00:21:50.512Z,98743.00
2024-02-02T00:24:19.694Z,98734.00
2024-02-02T00:26:48.976Z,98739.00
2024-02-02T00:29:18.383Z,98726.00
2024-02-02T00:31:47.449Z,98733.00
2024-02-02T00:34:19.259Z,98745.00
2024-02-02T00:36:49.924Z,98723.00
2024-02-02T00:39:20.246Z,98753.00
2024-02-02T00:41:50.271Z,98730.00
2024-02-02T00:44:21.598Z,98734.00
2024-02-02T00:46:52.678Z,98764.00
2024-02-02T00:49:24.105Z,98748.00
2024-02-02T00:51:55.142Z,98762.00
2024-02-02T00:54:24.377Z,98771.00
2024-02-02T00:56:53.677Z,98772.00
2024-02-02T00:59:23.044Z,98748.00
2024-02-02T01:01:53.130Z,98758.00
2024-02-02T01:04:22.652Z,98770.00
2024-02-02T01:06:54.768Z,98775.00
2024-02-02T01:09:23.999Z,98780.00
2024-02-02T01:11:55.527Z,98760.00
2024-02-02T01:14:28.066Z,98783.00
2024-02-02T01:16:57.371Z,98767.00
2024-02-02T01:19:27.275Z,98792.00
2024-02-02T01:21:58.016Z,98780.00
2024-02-02T01:24:28.144Z,98806.00
2024-02-02T01:26:57.818Z,98806.00
2024-02-02T01:29:36.636Z,98794.00
2024-02-02T01:32:10.865Z,98786.00
2024-02-02T01:34:42.678Z,98788.00
2024-02-02T01:37:18.044Z,98804.00
2024-02-02T01:39:49.540Z,98792.00
2024-02-02T01:42:20.358Z,98794.00
2024-02-02T01:44:55.688Z,98784.00
2024-02-02T01:47:25.019Z,98787.00
2024-02-02T01:49:54.195Z,98792.00
2024-02-02T01:52:25.006Z,98791.00
2024-02-02T01:54:55.004Z,98801.00
2024-02-02T01:57:24.381Z,98776.00
2024-02-02T01:59:55.233Z,98819.00
2024-02-02T02:02:26.075Z,98783.00
2024-02-02T02:04:56.828Z,98797.00
2024-02-02T02:07:28.178Z,98801.00
2024-02-02T02:10:01.830Z,98808.00
2024-02-02T02:12:40.037Z,98785.00
2024-02-02T02:15:12.089Z,98792.00
2024-02-02T02:17:49.645Z,98800.00
2024-02-02T02:20:27.571Z,98815.00
2024-02-02T02:22:58.558Z,98807.00
2024-02-02T02:25:27.773Z,98777.00
2024-02-02T02:27:56.948Z,98796.00
2024-02-02T02:30:26.274Z,98819.00
2024-02-02T02:32:58.303Z,98820.00
2024-02-02T02:35:29.391Z,98812.00
2024-02-02T02:38:00.253Z,98825.00
2024-02-02T02:40:30.404Z,98810.00
2024-02-02T02:43:00.381Z,98823.00
2024-02-02T02:45:31.494Z,98825.00
2024-02-02T02:48:02.515Z,98823.00
2024-02-02T02:50:31.817Z,98809.00
2024-02-02T02:53:03.212Z,98796.00
2024-02-02T02:55:33.497Z,98810.00
2024-02-02T02:58:03.136Z,98794.00
2024-02-02T03:00:33.758Z,98820.00
2024-02-02T03:03:03.478Z,98800.00
2024-02-02T03:05:43.038Z,98800.00
2024-02-02T03:08:14.107Z,98812.00
2024-02-02T03:10:44.490Z,98812.00
2024-02-02T03:13:14.345Z,98832.00
2024-02-02T03:15:48.633Z,98817.00
2024-02-02T03:18:23.791Z,98815.00
2024-02-02T03:20:56.678Z,98795.00
2024-02-02T03:23:34.774Z,98828.00
2024-02-02T03:26:04.573Z,98814.00
2024-02-02T03:28:39.587Z,98836.00
2024-02-02T03:31:09.498Z,98839.00
2024-02-02T03:33:38.862Z,98829.00
2024-02-02T03:36:09.062Z,98855.00
2024-02-02T03:38:39.702Z,98839.00
2024-02-02T03:41:08.947Z,98868.00
2024-02-02T03:43:38.102Z,98826.00
2024-02-02T03:46:07.395Z,98866.00
2024-02-02T03:48:39.125Z,98864.00
2024-02-02T03:51:08.390Z,98879.00
2024-02-02T03:53:38.863Z,98816.00
2024-02-02T03:56:08.510Z,98877.00
2024-02-02T03:58:38.328Z,98884.00
2024-02-02T04:01:13.110Z,98873.00
2024-02-02T04:03:42.325Z,98846.00
2024-02-02T04:06:11.996Z,98877.00
2024-02-02T04:08:44.195Z,98884.00
2024-02-02T04:11:16.500Z,98892.00
2024-02-02T04:13:45.796Z,98902.00
2024-02-02T04:16:20.298Z,98883.00
2024-02-02T04:18:58.387Z,98867.00
2024-02-02T04:21:31.122Z,98883.00
2024-02-02T04:24:02.006Z,98885.00
2024-02-02T04:26:34.797Z,98865.00
2024-02-02T04:29:04.128Z,98874.00
2024-02-02T04:31:33.264Z,98902.00
2024-02-02T04:34:02.911Z,98881.00
2024-02-02T04:36:34.915Z,98872.00
2024-02-02T04:39:10.449Z,98877.00
2024-02-02T04:41:41.281Z,98883.00
2024-02-02T04:44:11.434Z,98905.00
2024-02-02T04:46:42.601Z,98872.00
2024-02-02T04:49:11.842Z,98904.00
2024-02-02T04:51:42.545Z,98898.00
2024-02-02T04:54:13.327Z,98860.00
2024-02-02T04:56:43.991Z,98915.00
2024-02-02T04:59:13.524Z,98913.00
2024-02-02T05:01:45.156Z,98919.00
2024-02-02T05:04:15.025Z,98918.00
2024-02-02T05:06:45.433Z,98900.00
2024-02-02T05:09:15.891Z,98883.00
2024-02-02T05:11:45.873Z,98916.00
2024-02-02T05:14:15.419Z,98914.00
2024-02-02T05:16:46.001Z,98932.00
2024-02-02T05:19:16.473Z,98905.00
2024-02-02T05:21:45.965Z,98906.00
2024-02-02T05:24:33.145Z,98930.00
2024-02-02T05:27:09.069Z,98905.00
2024-02-02T05:29:38.803Z,98921.00
2024-02-02T05:32:09.087Z,98943.00
2024-02-02T05:34:38.394Z,98933.00
2024-02-02T05:37:07.922Z,98939.00
2024-02-02T05:39:38.452Z,98930.00
2024-02-02T05:42:08.423Z,98982.00
2024-02-02T05:44:38.322Z,98927.00
2024-02-02T05:47:07.709Z,98945.00
2024-02-02T05:49:36.937Z,98931.00
2024-02-02T05:52:06.768Z,98952.00
2024-02-02T05:54:37.945Z,98938.00
2024-02-02T05:57:07.748Z,98951.00
2024-02-02T05:59:37.212Z,98952.00
2024-02-02T06:02:06.566Z,98970.00
2024-02-02T06:04:36.085Z,98955.00
2024-02-02T06:07:06.147Z,98962.00
2024-02-02T06:09:35.621Z,98974.00
2024-02-02T06:12:07.395Z,98974.00
2024-02-02T06:14:37.556Z,98963.00
2024-02-02T06:17:07.432Z,98959.00
2024-02-02T06:19:37.271Z,98988.00
2024-02-02T06:22:06.792Z,98988.00
2024-02-02T06:24:39.499Z,98939.00
2024-02-02T06:27:11.928Z,98982.00
2024-02-02T06:29:41.382Z,98968.00
2024-02-02T06:32:10.607Z,99006.00
2024-02-02T06:34:45.680Z,98945.00
2024-02-02T06:37:14.883Z,98976.00
2024-02-02T06:39:46.103Z,98976.00
2024-02-02T06:42:17.851Z,98999.00
2024-02-02T06:44:47.284Z,98986.00
2024-02-02T06:47:18.609Z,98968.00
2024-02-02T06:49:49.208Z,98995.00
2024-02-02T06:52:22.761Z,98991.00
2024-02-02T06:54:52.380Z,98981.00
2024-02-02T06:57:23.123Z,98976.00
2024-02-02T06:59:52.694Z,99001.00
2024-02-02T07:02:24.251Z,98979.00
2024-02-02T07:04:55.146Z,98970.00
2024-02-02T07:07:24.839Z,99006.00
2024-02-02T07:09:57.712Z,98978.00
2024-02-02T07:12:58.696Z,98997.00
2024-02-02T07:15:30.615Z,99010.00
2024-02-02T07:18:00.440Z,99008.00
2024-02-02T07:21:08.236Z,98995.00
2024-02-02T07:23:41.716Z,99025.00
2024-02-02T07:26:27.925Z,99013.00
2024-02-02T07:28:59.741Z,98985.00
2024-02-02T07:31:49.850Z,98969.00
2024-02-02T07:34:44.239Z,99042.00
2024-02-02T07:37:47.668Z,99044.00
2024-02-02T07:41:06.147Z,99043.00
2024-02-02T07:43:35.627Z,99038.00
2024-02-02T07:46:14.342Z,99041.00
2024-02-02T07:48:45.928Z,99071.00
2024-02-02T07:51:16.874Z,99041.00
2024-02-02T07:53:47.089Z,99060.00
2024-02-02T07:56:19.010Z,99050.00
2024-02-02T07:58:49.056Z,99048.00
2024-02-02T08:01:32.690Z,99070.00
2024-02-02T08:04:16.325Z,98996.00
2024-02-02T08:06:45.733Z,99113.00
2024-02-02T08:09:14.882Z,99066.00
2024-02-02T08:11:45.861Z,99063.00
2024-02-02T08:14:28.467Z,99057.00
2024-02-02T08:17:08.418Z,99087.00
2024-02-02T08:19:38.995Z,99063.00
2024-02-02T08:22:10.941Z,99047.00
2024-02-02T08:24:40.535Z,99051.00
2024-02-02T08:27:10.646Z,99039.00
2024-02-02T08:29:42.103Z,99060.00
2024-02-02T08:32:16.889Z,99037.00
2024-02-02T08:34:46.233Z,99117.00
2024-02-02T08:37:16.926Z,99073.00
2024-02-02T08:39:46.872Z,99088.00
2024-02-02T08:42:23.502Z,99089.00
2024-02-02T08:44:55.078Z,99055.00
2024-02-02T08:47:32.749Z,99095.00
2024-02-02T08:52:52.459Z,99078.00
2024-02-02T08:55:47.342Z,99092.00
2024-02-02T08:58:25.567Z,99144.00
2024-02-02T09:01:02.967Z,99105.00
2024-02-02T09:03:46.963Z,99144.00
2024-02-02T09:06:45.858Z,99104.00
2024-02-02T09:09:19.211Z,99125.00
2024-02-02T09:11:52.249Z,99127.00
2024-02-02T09:14:24.900Z,99088.00
2024-02-02T09:16:56.453Z,99156.00
2024-02-02T09:19:33.219Z,99101.00
2024-02-02T09:22:05.342Z,99133.00
2024-02-02T09:24:45.278Z,99075.00
2024-02-02T09:27:34.596Z,99103.00
2024-02-02T09:30:08.639Z,99144.00
2024-02-02T09:32:43.393Z,99160.00
2024-02-02T09:35:52.770Z,99171.00
2024-02-02T09:38:23.266Z,99113.00
2024-02-02T09:41:36.211Z,99180.00
2024-02-02T09:44:25.001Z,99072.00
2024-02-02T09:47:09.096Z,99141.00
2024-02-02T09:49:54.914Z,99128.00
2024-02-02T09:52:46.879Z,99140.00
2024-02-02T09:55:30.050Z,99118.00
2024-02-02T09:58:10.210Z,99157.00
2024-02-02T10:00:51.804Z,99147.00
2024-02-02T10:03:36.268Z,99151.00
2024-02-02T10:06:25.702Z,99182.00
2024-02-02T10:09:23.860Z,99194.00
2024-02-02T10:12:14.658Z,99161.00
2024-02-02T10:15:10.971Z,99188.00
2024-02-02T10:18:11.856Z,99138.00
2024-02-02T10:20:51.487Z,99162.00
2024-02-02T10:24:11.917Z,99157.00
2024-02-02T10:27:13.827Z,99168.00
2024-02-02T10:29:56.810Z,99166.00
2024-02-02T10:32:56.621Z,99179.00
2024-02-02T10:35:38.981Z,99178.00
2024-02-02T10:38:47.505Z,99148.00
2024-02-02T10:41:33.985Z,99150.00
2024-02-02T10:44:24.339Z,99181.00
2024-02-02T10:47:10.127Z,99111.00
2024-02-02T10:50:00.522Z,99200.00
2024-02-02T10:52:42.733Z,99077.00
2024-02-02T10:55:36.311Z,99152.00
2024-02-02T10:58:18.575Z,99205.00
2024-02-02T11:01:03.010Z,99206.00
2024-02-02T11:03:42.709Z,99166.00
2024-02-02T11:06:24.754Z,99213.00
2024-02-02T11:09:03.829Z,99174.00
2024-02-02T11:11:38.408Z,99199.00
2024-02-02T11:14:24.787Z,99204.00
2024-02-02T11:17:07.957Z,99188.00
2024-02-02T11:19:59.384Z,99204.00
2024-02-02T11:22:39.385Z,99206.00
2024-02-02T11:25:24.419Z,99200.00
2024-02-02T11:28:03.139Z,99237.00
2024-02-02T11:30:50.937Z,99227.00
2024-02-02T11:33:46.541Z,99204.00
2024-02-02T11:36:35.511Z,99205.00
2024-02-02T11:39:25.223Z,99219.00
2024-02-02T11:41:55.497Z,99230.00
2024-02-02T11:44:29.985Z,99226.00
2024-02-02T11:47:02.276Z,99154.00
2024-02-02T11:49:43.171Z,99240.00
2024-02-02T11:52:25.461Z,99200.00
2024-02-02T11:55:03.450Z,99258.00
2024-02-02T11:57:41.175Z,99256.00
2024-02-02T12:00:20.954Z,99235.00
2024-02-02T12:03:17.868Z,99266.00
2024-02-02T12:06:17.335Z,99208.00
2024-02-02T12:09:16.381Z,99229.00
2024-02-02T12:11:54.801Z,99272.00
2024-02-02T12:14:32.051Z,99257.00
2024-02-02T12:17:01.912Z,99262.00
2024-02-02T12:19:32.867Z,99284.00
2024-02-02T12:22:03.921Z,99284.00
2024-02-02T12:24:39.282Z,99278.00
2024-02-02T12:27:09.358Z,99286.00
2024-02-02T12:29:42.593Z,99313.00
2024-02-02T12:32:13.446Z,99296.00
2024-02-02T12:34:44.438Z,99277.00
2024-02-02T12:37:16.213Z,99270.00
2024-02-02T12:39:52.632Z,99323.00
2024-02-02T12:42:25.787Z,99307.00
2024-02-02T12:44:56.069Z,99323.00
2024-02-02T12:47:27.778Z,99308.00
2024-02-02T12:49:57.593Z,99323.00
2024-02-02T12:52:28.599Z,99326.00
2024-02-02T12:54:58.147Z,99335.00
2024-02-02T12:57:28.272Z,99326.00
2024-02-02T13:00:00.806Z,99338.00
2024-02-02T13:02:31.299Z,99335.00
2024-02-02T13:05:11.621Z,99319.00
2024-02-02T13:07:44.278Z,99313.00
2024-02-02T13:10:18.917Z,99325.00
2024-02-02T13:12:54.145Z,99344.00
2024-02-02T13:15:27.369Z,99345.00
2024-02-02T13:18:07.017Z,99355.00
2024-02-02T13:21:01.009Z,99361.00
2024-02-02T13:23:32.247Z,99355.00
2024-02-02T13:26:08.216Z,99357.00
2024-02-02T13:28:42.511Z,99358.00
2024-02-02T13:31:19.550Z,99371.00
2024-02-02T13:33:57.344Z,99376.00
2024-02-02T13:36:31.454Z,99372.00
2024-02-02T13:39:20.069Z,99361.00
2024-02-02T13:41:51.402Z,99388.00
2024-02-02T13:44:31.053Z,99379.00
2024-02-02T13:47:01.150Z,99381.00
2024-02-02T13:49:33.748Z,99384.00
2024-02-02T13:52:31.434Z,99393.00
2024-02-02T13:55:05.574Z,99398.00
2024-02-02T13:57:40.505Z,99365.00
2024-02-02T14:00:18.928Z,99377.00
2024-02-02T14:02:52.737Z,99403.00
2024-02-02T14:05:26.988Z,99401.00
2024-02-02T14:07:59.658Z,99411.00
2024-02-02T14:10:34.224Z,99422.00
2024-02-02T14:13:06.364Z,99416.00
2024-02-02T14:15:44.191Z,99424.00
2024-02-02T14:18:16.430Z,99416.00
2024-02-02T14:20:47.520Z,99428.00
2024-02-02T14:23:18.212Z,99439.00
2024-02-02T14:25:51.107Z,99439.00
2024-02-02T14:28:26.491Z,99444.00
2024-02-02T14:31:02.563Z,99447.00
2024-02-02T14:33:32.294Z,99438.00
2024-02-02T14:36:09.384Z,99445.00
2024-02-02T14:38:52.106Z,99467.00
2024-02-02T14:41:23.551Z,99460.00
2024-02-02T14:43:56.292Z,99436.00
2024-02-02T14:46:25.475Z,99447.00
2024-02-02T14:48:56.479Z,99454.00
2024-02-02T14:51:25.787Z,99460.00
2024-02-02T14:53:55.578Z,99442.00
2024-02-02T14:56:27.452Z,99468.00
2024-02-02T14:59:09.500Z,99450.00
2024-02-02T15:01:40.501Z,99462.00
2024-02-02T15:04:10.901Z,99452.00
2024-02-02T15:06:43.678Z,99467.00
2024-02-02T15:09:18.584Z,99460.00
2024-02-02T15:11:53.377Z,99447.00
2024-02-02T15:14:33.678Z,99463.00
2024-02-02T15:17:03.376Z,99454.00
2024-02-02T15:19:36.474Z,99447.00
2024-02-02T15:22:06.201Z,99438.00
2024-02-02T15:24:36.780Z,99469.00
2024-02-02T15:27:07.572Z,99454.00
2024-02-02T15:29:38.389Z,99468.00
2024-02-02T15:32:08.054Z,99481.00
2024-02-02T15:34:37.590Z,99474.00
2024-02-02T15:37:07.020Z,99456.00
2024-02-02T15:39:38.572Z,99468.00
2024-02-02T15:42:10.718Z,99479.00
2024-02-02T15:44:40.303Z,99479.00
2024-02-02T15:47:14.435Z,99476.00
2024-02-02T15:49:48.752Z,99471.00
2024-02-02T15:52:19.405Z,99482.00
2024-02-02T15:54:49.011Z,99482.00
2024-02-02T15:57:20.126Z,99469.00
2024-02-02T15:59:52.715Z,99494.00
2024-02-02T16:02:24.756Z,99472.00
2024-02-02T16:04:59.274Z,99488.00
2024-02-02T16:07:28.889Z,99491.00
2024-02-02T16:09:58.837Z,99475.00
2024-02-02T16:12:29.602Z,99490.00
2024-02-02T16:15:04.912Z,99487.00
2024-02-02T16:17:43.831Z,99498.00
2024-02-02T16:20:14.694Z,99494.00
2024-02-02T16:22:44.432Z,99500.00
2024-02-02T16:25:18.386Z,99499.00
2024-02-02T16:27:50.208Z,99492.00
2024-02-02T16:30:19.449Z,99503.00
2024-02-02T16:32:48.779Z,99498.00
2024-02-02T16:35:18.079Z,99507.00
2024-02-02T16:37:47.246Z,99503.00
2024-02-02T16:40:16.480Z,99503.00
2024-02-02T16:42:45.953Z,99500.00
2024-02-02T16:45:17.714Z,99507.00
2024-02-02T16:47:47.254Z,99495.00
2024-02-02T16:50:16.635Z,99494.00
2024-02-02T16:52:48.066Z,99491.00
2024-02-02T16:55:17.433Z,99495.00
2024-02-02T16:57:48.082Z,99492.00
2024-02-02T17:00:20.415Z,99494.00
2024-02-02T17:02:50.434Z,99498.00
2024-02-02T17:05:20.182Z,99493.00
2024-02-02T17:07:52.689Z,99486.00
2024-02-02T17:10:22.169Z,99497.00
2024-02-02T17:12:51.630Z,99484.00
2024-02-02T17:15:22.344Z,99486.00
2024-02-02T17:17:51.611Z,99496.00
2024-02-02T17:20:26.167Z,99488.00
2024-02-02T17:22:58.303Z,99481.00
2024-02-02T17:25:27.584Z,99479.00
2024-02-02T17:27:56.888Z,99480.00
2024-02-02T17:30:27.535Z,99464.00
2024-02-02T17:33:06.110Z,99470.00
2024-02-02T17:35:40.907Z,99470.00
2024-02-02T17:38:16.795Z,99463.00
2024-02-02T17:40:47.610Z,99454.00
2024-02-02T17:43:18.479Z,99462.00
2024-02-02T17:45:51.464Z,99454.00
2024-02-02T17:48:21.128Z,99458.00
2024-02-02T17:50:50.628Z,99449.00
2024-02-02T17:53:19.884Z,99453.00
2024-02-02T17:55:49.027Z,99446.00
2024-02-02T17:58:18.203Z,99442.00
2024-02-02T18:00:49.010Z,99435.00
2024-02-02T18:03:18.920Z,99434.00
2024-02-02T18:05:50.840Z,99430.00
2024-02-02T18:08:20.167Z,99437.00
2024-02-02T18:10:54.271Z,99439.00
2024-02-02T18:13:23.447Z,99439.00
2024-02-02T18:15:54.223Z,99436.00
2024-02-02T18:18:23.807Z,99441.00
2024-02-02T18:20:52.997Z,99439.00
2024-02-02T18:23:22.229Z,99437.00
2024-02-02T18:25:51.536Z,99435.00
2024-02-02T18:28:24.818Z,99430.00
2024-02-02T18:30:55.631Z,99424.00
2024-02-02T18:33:25.275Z,99406.00
2024-02-02T18:35:57.837Z,99402.00
2024-02-02T18:38:29.480Z,99408.00
2024-02-02T18:41:00.681Z,99412.00
2024-02-02T18:43:29.791Z,99418.00
2024-02-02T18:46:04.240Z,99418.00
2024-02-02T18:48:36.721Z,99411.00
2024-02-02T18:51:17.682Z,99417.00
2024-02-02T18:53:49.032Z,99412.00
2024-02-02T18:56:19.176Z,99405.00
2024-02-02T18:58:49.329Z,99404.00
2024-02-02T19:01:26.772Z,99406.00
2024-02-02T19:03:56.663Z,99403.00
2024-02-02T19:06:26.071Z,99403.00
2024-02-02T19:08:56.899Z,99396.00
2024-02-02T19:11:32.770Z,99390.00
2024-02-02T19:14:02.981Z,99390.00
2024-02-02T19:16:39.209Z,99392.00
2024-02-02T19:19:10.572Z,99390.00
2024-02-02T19:21:45.716Z,99374.00
2024-02-02T19:24:16.075Z,99379.00
2024-02-02T19:26:50.418Z,99376.00
2024-02-02T19:29:29.865Z,99384.00
2024-02-02T19:32:00.584Z,99372.00
2024-02-02T19:34:33.172Z,99375.00
2024-02-02T19:37:02.675Z,99381.00
2024-02-02T19:39:36.478Z,99372.00
2024-02-02T19:42:10.121Z,99359.00
2024-02-02T19:44:43.113Z,99357.00
2024-02-02T19:47:24.623Z,99361.00
2024-02-02T19:49:58.767Z,99357.00
2024-02-02T19:52:29.948Z,99355.00
2024-02-02T19:55:00.350Z,99346.00
2024-02-02T19:57:33.438Z,99350.00
2024-02-02T20:00:15.782Z,99342.00
2024-02-02T20:02:51.453Z,99347.00
2024-02-02T20:05:22.762Z,99343.00
2024-02-02T20:07:54.292Z,99338.00
2024-02-02T20:10:28.650Z,99330.00
2024-02-02T20:13:01.549Z,99337.00
2024-02-02T20:15:32.950Z,99332.00
2024-02-02T20:18:04.095Z,99331.00
2024-02-02T20:20:36.783Z,99328.00
2024-02-02T20:23:07.175Z,99321.00
2024-02-02T20:25:36.576Z,99306.00
2024-02-02T20:28:06.591Z,99314.00
2024-02-02T20:30:43.419Z,99305.00
2024-02-02T20:33:19.054Z,99298.00
2024-02-02T20:35:50.676Z,99308.00
2024-02-02T20:38:23.014Z,99296.00
2024-02-02T20:40:53.930Z,99289.00
2024-02-02T20:43:23.298Z,99290.00
2024-02-02T20:45:53.611Z,99285.00
2024-02-02T20:48:33.690Z,99279.00
2024-02-02T20:51:18.325Z,99276.00
2024-02-02T20:53:48.803Z,99276.00
2024-02-02T20:56:22.364Z,99267.00
2024-02-02T20:58:58.611Z,99268.00
2024-02-02T21:01:42.642Z,99272.00
2024-02-02T21:04:17.074Z,99265.00
2024-02-02T21:06:47.186Z,99261.00
2024-02-02T21:09:16.266Z,99257.00
2024-02-02T21:11:45.914Z,99258.00
2024-02-02T21:14:14.961Z,99254.00
2024-02-02T21:16:51.146Z,99249.00
2024-02-02T21:19:21.690Z,99251.00
2024-02-02T21:21:52.706Z,99251.00
2024-02-02T21:24:22.990Z,99249.00
2024-02-02T21:26:52.200Z,99245.00
2024-02-02T21:29:23.606Z,99243.00
2024-02-02T21:31:52.760Z,99245.00
2024-02-02T21:34:24.958Z,99227.00
2024-02-02T21:36:54.237Z,99238.00
2024-02-02T21:39:23.453Z,99241.00
2024-02-02T21:41:52.589Z,99242.00
2024-02-02T21:44:27.397Z,99246.00
2024-02-02T21:47:07.800Z,99242.00
2024-02-02T21:49:41.769Z,99244.00
2024-02-02T21:52:12.285Z,99249.00
2024-02-02T21:54:41.432Z,99235.00
2024-02-02T21:57:10.790Z,99236.00
2024-02-02T21:59:40.511Z,99222.00
2024-02-02T22:02:09.658Z,99232.00
2024-02-02T22:04:40.215Z,99208.00
2024-02-02T22:07:09.591Z,99208.00
2024-02-02T22:09:41.440Z,99204.00
2024-02-02T22:12:11.243Z,99207.00
2024-02-02T22:14:44.208Z,99213.00
2024-02-02T22:17:16.392Z,99205.00
2024-02-02T22:19:47.121Z,99200.00
2024-02-02T22:22:16.262Z,99194.00
2024-02-02T22:24:45.603Z,99190.00
2024-02-02T22:27:16.567Z,99183.00
2024-02-02T22:29:47.926Z,99187.00
2024-02-02T22:32:19.886Z,99172.00
2024-02-02T22:34:54.946Z,99170.00
2024-02-02T22:37:25.922Z,99153.00
2024-02-02T22:39:55.335Z,99146.00
2024-02-02T22:42:24.542Z,99148.00
2024-02-02T22:44:56.247Z,99152.00
2024-02-02T22:47:25.397Z,99145.00
2024-02-02T22:49:56.009Z,99138.00
2024-02-02T22:52:26.408Z,99138.00
2024-02-02T22:54:55.559Z,99133.00
2024-02-02T22:57:26.246Z,99131.00
2024-02-02T22:59:59.695Z,99120.00
2024-02-02T23:02:35.083Z,99115.00
2024-02-02T23:05:06.340Z,99112.00
2024-02-02T23:07:36.146Z,99102.00
2024-02-02T23:10:06.872Z,99100.00
2024-02-02T23:12:36.229Z,99098.00
2024-02-02T23:15:08.620Z,99086.00
2024-02-02T23:17:37.954Z,99080.00
2024-02-02T23:20:10.984Z,99085.00
2024-02-02T23:22:40.658Z,99076.00
2024-02-02T23:25:10.164Z,99079.00
2024-02-02T23:27:39.304Z,99075.00
2024-02-02T23:30:10.028Z,99067.00
2024-02-02T23:32:39.351Z,99063.00
2024-02-02T23:35:10.433Z,99058.00
2024-02-02T23:37:39.672Z,99060.00
2024-02-02T23:40:10.351Z,99055.00
2024-02-02T23:42:39.628Z,99044.00
2024-02-02T23:45:12.853Z,99047.00
2024-02-02T23:47:43.752Z,99049.00
2024-02-02T23:50:15.921Z,99039.00
2024-02-02T23:52:45.240Z,99030.00
2024-02-02T23:55:15.405Z,99030.00
2024-02-02T23:57:45.027Z,99019.00
